Time;durP1;ratioP1;P1;durP2;ratioP2;P2;SDS_P1;SDS_P2;PMS_P1;PMS_P2;Temp;Humidity;BMP_temperature;BMP_pressure;BME280_temperature;BME280_humidity;BME280_pressure;Samples;Min_cycle;Max_cycle;Signal;HPM_P1;HPM_P2
2023/04/22 00:01:46;;;;;;;;;6.50;6.00;;;;;18.68;38.39;100165.13;5041593;28;45355;-37
2023/04/22 00:04:12;;;;;;;;;6.00;6.00;;;;;18.68;38.39;100162.50;5037901;28;45228;-37
2023/04/22 00:06:37;;;;;;;;;9.00;6.00;;;;;18.66;38.20;100161.72;5041925;28;45609;-41
2023/04/22 00:09:02;;;;;;;;;6.33;6.33;;;;;18.67;38.21;100166.06;5054595;28;59589;-37
2023/04/22 00:11:28;;;;;;;;;8.50;6.25;;;;;18.67;38.77;100170.47;5049751;28;45391;-38
2023/04/22 00:13:53;;;;;;;;;6.33;6.00;;;;;18.68;38.14;100175.63;5043269;28;54018;-38
2023/04/22 00:16:18;;;;;;;;;6.00;6.00;;;;;18.66;38.87;100174.03;5040342;28;45416;-36
2023/04/22 00:18:44;;;;;;;;;7.00;6.00;;;;;18.68;38.77;100172.16;5044414;28;46437;-38
2023/04/22 00:21:09;;;;;;;;;8.00;5.25;;;;;18.66;38.68;100172.22;5040601;28;45417;-41
2023/04/22 00:23:34;;;;;;;;;9.25;6.00;;;;;18.68;38.46;100174.78;5036554;28;45363;-41
2023/04/22 00:26:00;;;;;;;;;7.25;7.25;;;;;18.66;38.56;100168.78;5036517;28;45268;-40
2023/04/22 00:28:26;;;;;;;;;7.50;7.00;;;;;18.65;38.63;100167.91;5036356;28;45378;-38
2023/04/22 00:30:51;;;;;;;;;6.75;6.75;;;;;18.66;38.76;100174.03;5036782;28;45346;-37
2023/04/22 00:33:16;;;;;;;;;6.00;6.00;;;;;18.65;38.33;100170.53;5037323;28;45590;-40
2023/04/22 00:35:43;;;;;;;;;6.00;6.00;;;;;18.67;38.73;100167.84;5037838;28;45459;-40
2023/04/22 00:38:09;;;;;;;;;9.00;5.75;;;;;18.66;38.30;100169.59;5036059;28;46473;-40
2023/04/22 00:40:34;;;;;;;;;7.25;6.75;;;;;18.66;38.27;100156.47;5036269;28;45335;-40
2023/04/22 00:43:01;;;;;;;;;7.75;6.00;;;;;18.66;38.48;100160.91;5036101;28;45334;-40
2023/04/22 00:45:27;;;;;;;;;6.25;6.00;;;;;18.67;38.50;100167.84;5045373;28;45260;-40
2023/04/22 00:47:52;;;;;;;;;7.50;6.75;;;;;18.66;38.36;100166.97;5038936;28;45478;-38
2023/04/22 00:50:18;;;;;;;;;7.00;7.00;;;;;18.65;38.44;100165.28;5039954;28;45382;-40
2023/04/22 00:52:43;;;;;;;;;8.25;6.75;;;;;18.65;38.20;100169.72;5036284;28;45316;-37
2023/04/22 00:55:10;;;;;;;;;8.75;7.75;;;;;18.65;38.50;100164.47;5036678;28;45534;-40
2023/04/22 00:57:36;;;;;;;;;5.25;5.25;;;;;18.65;38.46;100160.03;5035625;28;45796;-39
2023/04/22 01:00:03;;;;;;;;;6.00;6.00;;;;;18.66;38.59;100156.47;5037605;28;45457;-40
2023/04/22 01:02:29;;;;;;;;;9.25;7.50;;;;;18.66;38.82;100134.66;5039281;28;45975;-40
2023/04/22 01:04:54;;;;;;;;;4.75;4.75;;;;;18.63;38.63;100134.81;5039292;28;45343;-40
2023/04/22 01:07:20;;;;;;;;;3.75;3.00;;;;;18.66;38.83;100129.41;5038898;28;46517;-40
2023/04/22 01:09:46;;;;;;;;;8.50;6.25;;;;;18.66;38.73;100126.78;5039078;28;45869;-40
2023/04/22 01:12:11;;;;;;;;;7.75;6.00;;;;;18.65;38.79;100125.09;5039423;28;45335;-43
2023/04/22 01:14:37;;;;;;;;;6.75;6.00;;;;;18.63;38.69;100125.16;5039135;28;45248;-41
2023/04/22 01:17:03;;;;;;;;;6.00;5.75;;;;;18.65;38.76;100122.47;5038795;28;46228;-40
2023/04/22 01:19:28;;;;;;;;;5.75;5.75;;;;;18.64;38.63;100107.66;5038845;28;45422;-40
2023/04/22 01:21:55;;;;;;;;;5.00;5.00;;;;;18.63;38.89;100106.78;5038938;28;45307;-40
2023/04/22 01:24:21;;;;;;;;;5.00;3.00;;;;;18.64;38.91;100100.59;5038911;28;45564;-41
2023/04/22 01:26:47;;;;;;;;;6.50;5.00;;;;;18.64;38.48;100099.78;5038525;28;47222;-40
2023/04/22 01:29:13;;;;;;;;;5.75;5.25;;;;;18.64;38.89;100094.53;5038941;28;45953;-40
2023/04/22 01:31:39;;;;;;;;;7.75;6.00;;;;;18.63;38.69;100093.66;5038734;28;45153;-40
2023/04/22 01:34:05;;;;;;;;;6.75;5.00;;;;;18.64;38.92;100094.53;5038886;28;45599;-40
2023/04/22 01:36:31;;;;;;;;;5.00;5.00;;;;;18.63;38.65;100100.72;5038496;28;46575;-40
2023/04/22 01:38:57;;;;;;;;;5.00;5.00;;;;;18.64;39.08;100097.16;5038982;28;45931;-39
2023/04/22 01:41:23;;;;;;;;;6.75;6.75;;;;;18.63;38.89;100090.22;5058782;28;45362;-38
2023/04/22 01:43:48;;;;;;;;;8.00;6.00;;;;;18.64;38.71;100100.59;5056007;28;45288;-42
2023/04/22 01:46:16;;;;;;;;;5.00;4.50;;;;;18.63;38.73;100090.22;5038854;28;45426;-39
2023/04/22 01:48:42;;;;;;;;;6.00;5.25;;;;;18.63;38.68;100092.84;5038812;28;45327;-40
2023/04/22 01:51:07;;;;;;;;;5.00;5.00;;;;;18.62;39.01;100078.03;5038538;28;45443;-39
2023/04/22 01:53:34;;;;;;;;;7.00;6.00;;;;;18.62;38.73;100080.63;5038696;28;45442;-39
2023/04/22 01:56:00;;;;;;;;;4.50;4.50;;;;;18.61;39.03;100079.81;5038390;28;45217;-38
2023/04/22 01:58:28;;;;;;;;;6.25;5.50;;;;;18.60;38.74;100062.38;5038366;28;45272;-39
2023/04/22 02:00:54;;;;;;;;;5.00;3.75;;;;;18.63;39.09;100061.34;5038590;28;45282;-36
2023/04/22 02:03:19;;;;;;;;;8.00;6.25;;;;;18.62;38.85;100057.03;5044641;28;48358;-36
2023/04/22 02:05:45;;;;;;;;;5.00;5.00;;;;;18.62;38.78;100054.41;5051810;28;46077;-36
2023/04/22 02:08:10;;;;;;;;;5.00;5.00;;;;;18.61;38.79;100035.19;5045674;28;59463;-36
2023/04/22 02:10:35;;;;;;;;;5.00;5.00;;;;;18.62;39.03;100033.41;5045531;28;51435;-39
2023/04/22 02:13:00;;;;;;;;;5.00;5.00;;;;;18.61;39.42;100037.81;5046186;28;45392;-38
2023/04/22 02:15:26;;;;;;;;;6.50;5.50;;;;;18.60;38.85;100044.00;5046088;28;47000;-38
2023/04/22 02:17:51;;;;;;;;;5.00;5.00;;;;;18.62;38.80;100055.25;5044700;28;45383;-37
2023/04/22 02:20:17;;;;;;;;;7.00;5.75;;;;;18.63;39.19;100056.09;5038154;28;45382;-37
2023/04/22 02:22:43;;;;;;;;;6.00;6.00;;;;;18.61;39.00;100050.94;5038076;28;45531;-37
2023/04/22 02:25:11;;;;;;;;;6.00;6.00;;;;;18.61;38.90;100048.31;5037610;28;46387;-37
2023/04/22 02:27:36;;;;;;;;;4.50;3.75;;;;;18.62;39.30;100051.78;5037882;28;45252;-37
2023/04/22 02:30:02;;;;;;;;;7.00;5.00;;;;;18.61;38.92;100060.56;5037900;28;45299;-37
2023/04/22 02:32:28;;;;;;;;;6.50;5.75;;;;;18.60;39.17;100061.50;5037893;28;45217;-38
2023/04/22 02:34:53;;;;;;;;;6.00;6.00;;;;;18.60;38.99;100048.38;5037530;28;46295;-37
2023/04/22 02:37:19;;;;;;;;;5.00;5.00;;;;;18.60;39.05;100056.25;5037513;28;55650;-37
2023/04/22 02:39:45;;;;;;;;;8.25;5.50;;;;;18.61;38.98;100057.94;5038127;28;45889;-37
2023/04/22 02:42:10;;;;;;;;;5.00;5.00;;;;;18.60;38.88;100062.38;5037814;28;45343;-38
2023/04/22 02:44:35;;;;;;;;;5.00;5.00;;;;;18.60;39.26;100051.00;5037440;28;45315;-37
2023/04/22 02:47:02;;;;;;;;;6.00;6.00;;;;;18.60;39.29;100054.50;5037502;28;45347;-36
2023/04/22 02:49:28;;;;;;;;;5.00;4.50;;;;;18.60;38.92;100056.25;5036348;28;45345;-38
2023/04/22 02:51:53;;;;;;;;;4.50;4.50;;;;;18.58;39.06;100045.00;5037712;28;45537;-40
2023/04/22 02:54:18;;;;;;;;;5.00;5.00;;;;;18.59;39.42;100051.94;5037692;28;45564;-39
2023/04/22 02:56:44;;;;;;;;;6.50;5.75;;;;;18.58;39.12;100043.25;5037399;28;45276;-39
2023/04/22 02:59:10;;;;;;;;;6.00;6.00;;;;;18.57;38.92;100040.72;5037480;28;45355;-39
2023/04/22 03:01:35;;;;;;;;;5.00;5.00;;;;;18.59;39.34;100047.56;5037445;28;45458;-37
2023/04/22 03:04:01;;;;;;;;;10.50;7.00;;;;;18.59;38.95;100033.56;5037231;28;46366;-36
2023/04/22 03:06:26;;;;;;;;;5.00;5.00;;;;;18.59;39.32;100028.31;5038017;28;45355;-39
2023/04/22 03:08:51;;;;;;;;;6.25;6.25;;;;;18.56;39.41;100012.78;5037041;28;52036;-37
2023/04/22 03:11:17;;;;;;;;;5.00;5.00;;;;;18.57;39.15;100009.22;5037805;28;45478;-37
2023/04/22 03:13:42;;;;;;;;;6.75;6.25;;;;;18.56;39.17;100012.78;5035836;28;46319;-36
2023/04/22 03:16:08;;;;;;;;;6.25;6.25;;;;;18.54;39.20;100005.84;5037083;28;45299;-37
2023/04/22 03:18:33;;;;;;;;;5.75;5.75;;;;;18.56;39.06;99999.66;5037159;28;45177;-36
2023/04/22 03:20:59;;;;;;;;;6.00;6.00;;;;;18.55;38.97;99990.94;5041538;28;45360;-37
2023/04/22 03:23:25;;;;;;;;;7.75;7.75;;;;;18.56;39.21;99989.16;5057292;28;45323;-37
2023/04/22 03:25:50;;;;;;;;;5.75;5.00;;;;;18.54;39.55;99984.84;5037738;28;45445;-37
2023/04/22 03:28:16;;;;;;;;;6.75;6.00;;;;;18.54;39.54;99979.59;5037457;28;45445;-37
2023/04/22 03:30:41;;;;;;;;;5.67;5.33;;;;;18.53;39.32;99971.81;5037177;28;45319;-37
2023/04/22 03:33:06;;;;;;;;;7.00;6.00;;;;;18.53;39.46;99974.44;5036189;28;61907;-37
2023/04/22 03:35:31;;;;;;;;;7.50;6.00;;;;;18.53;39.34;99977.91;5036838;28;45406;-37
2023/04/22 03:37:57;;;;;;;;;8.00;8.00;;;;;18.52;39.42;99970.16;5036329;28;58159;-36
2023/04/22 03:40:22;;;;;;;;;6.00;6.00;;;;;18.51;39.64;99977.16;5036955;28;47267;-36
2023/04/22 03:42:47;;;;;;;;;5.75;4.25;;;;;18.52;39.74;99986.72;5036169;28;63217;-36
2023/04/22 03:45:13;;;;;;;;;8.25;7.00;;;;;18.53;39.52;99982.31;5036882;28;45430;-37
2023/04/22 03:47:38;;;;;;;;;8.75;5.75;;;;;18.53;39.56;99982.31;5037050;28;45391;-37
2023/04/22 03:50:04;;;;;;;;;5.75;5.75;;;;;18.53;39.57;99988.41;5037344;28;45518;-38
2023/04/22 03:52:29;;;;;;;;;8.00;7.00;;;;;18.53;39.46;99983.16;5037442;28;45394;-37
2023/04/22 03:54:54;;;;;;;;;3.67;3.67;;;;;18.53;39.46;99977.91;5038725;28;71237;-37
2023/04/22 03:57:20;;;;;;;;;7.67;6.67;;;;;18.53;39.65;99967.41;5039379;28;54759;-39
2023/04/22 03:59:45;;;;;;;;;5.33;5.33;;;;;18.53;39.30;99956.91;5042237;28;51181;-37
2023/04/22 04:02:10;;;;;;;;;6.33;6.00;;;;;18.53;39.70;99940.31;5044896;28;65861;-37
2023/04/22 04:04:36;;;;;;;;;7.00;7.00;;;;;18.53;39.72;99958.69;5050326;28;45262;-37
2023/04/22 04:07:01;;;;;;;;;6.00;5.00;;;;;18.53;39.46;99977.06;5050648;28;55927;-37
2023/04/22 04:09:26;;;;;;;;;5.25;5.25;;;;;18.52;39.33;99981.47;5052554;28;45228;-37
2023/04/22 04:11:52;;;;;;;;;6.00;6.00;;;;;18.52;39.16;99981.47;5055628;28;64847;-37
2023/04/22 04:14:17;;;;;;;;;8.00;7.00;;;;;18.53;39.38;99966.56;5056230;28;44798;-37
2023/04/22 04:16:43;;;;;;;;;6.00;5.00;;;;;18.53;39.09;99962.16;5053891;28;45252;-38
2023/04/22 04:19:09;;;;;;;;;8.00;6.00;;;;;18.53;39.48;99950.81;5054270;28;45600;-37
2023/04/22 04:21:34;;;;;;;;;8.00;6.50;;;;;18.54;39.59;99924.50;5057606;28;46702;-38
2023/04/22 04:23:59;;;;;;;;;10.75;8.00;;;;;18.52;39.78;99902.75;5054866;28;44678;-40
2023/04/22 04:26:26;;;;;;;;;8.33;8.00;;;;;18.53;39.52;99900.94;5055426;28;60660;-38
2023/04/22 04:28:52;;;;;;;;;9.00;8.00;;;;;18.52;39.78;99902.75;5052526;28;45504;-39
2023/04/22 04:31:17;;;;;;;;;8.25;8.00;;;;;18.51;39.95;99906.31;5037876;28;47144;-41
2023/04/22 04:33:43;;;;;;;;;9.25;8.50;;;;;18.50;39.88;99916.91;5039722;28;45366;-40
2023/04/22 04:36:09;;;;;;;;;8.50;7.75;;;;;18.49;39.64;99929.16;5041525;28;45381;-41
2023/04/22 04:38:34;;;;;;;;;10.00;7.00;;;;;18.47;39.41;99946.78;5041442;28;45558;-40
2023/04/22 04:41:00;;;;;;;;;6.00;6.00;;;;;18.48;39.53;99956.34;5063528;28;45648;-45
2023/04/22 04:43:25;;;;;;;;;10.00;8.50;;;;;18.48;39.75;99945.84;5041072;28;45295;-39
2023/04/22 04:45:52;;;;;;;;;10.00;7.50;;;;;18.47;39.99;99923.16;5039976;28;45562;-40
2023/04/22 04:48:18;;;;;;;;;5.25;5.25;;;;;18.46;39.76;99908.38;5040024;28;45259;-40
2023/04/22 04:50:44;;;;;;;;;4.00;4.00;;;;;18.47;40.09;99920.53;5039696;28;45457;-42
2023/04/22 04:53:10;;;;;;;;;8.50;8.00;;;;;18.46;39.60;99937.25;5039373;28;45394;-37
2023/04/22 04:55:36;;;;;;;;;6.00;6.00;;;;;18.46;39.66;99913.63;5039470;28;45464;-37
2023/04/22 04:58:01;;;;;;;;;9.75;8.00;;;;;18.46;39.98;99908.38;5040428;28;45401;-38
2023/04/22 05:00:27;;;;;;;;;9.75;9.75;;;;;18.44;40.21;99886.66;5039864;28;45436;-39
2023/04/22 05:02:52;;;;;;;;;7.25;7.25;;;;;18.43;40.10;99873.59;5040199;28;45385;-37
2023/04/22 05:05:17;;;;;;;;;6.00;6.00;;;;;18.40;40.01;99882.50;5041401;28;45307;-38
2023/04/22 05:07:43;;;;;;;;;7.50;7.50;;;;;18.43;39.98;99878.84;5042429;28;45552;-37
2023/04/22 05:10:09;;;;;;;;;11.50;7.25;;;;;18.43;39.91;99870.97;5049493;28;45566;-38
2023/04/22 05:12:34;;;;;;;;;10.00;8.25;;;;;18.43;40.51;99871.84;5052673;28;45150;-39
2023/04/22 05:14:59;;;;;;;;;8.75;7.50;;;;;18.41;40.24;99894.69;5051540;28;47529;-37
2023/04/22 05:17:25;;;;;;;;;7.25;7.00;;;;;18.43;40.44;99913.81;5056472;28;44896;-39
2023/04/22 05:19:50;;;;;;;;;11.25;9.00;;;;;18.43;40.23;99921.69;5039823;28;46417;-38
2023/04/22 05:22:17;;;;;;;;;7.00;7.00;;;;;18.44;40.52;99935.63;5039397;28;59909;-37
2023/04/22 05:24:42;;;;;;;;;8.00;8.00;;;;;18.44;40.34;99938.25;5039951;28;45317;-37
2023/04/22 05:27:08;;;;;;;;;11.50;9.00;;;;;18.43;40.19;99933.94;5039906;28;45204;-36
2023/04/22 05:29:33;;;;;;;;;10.00;8.00;;;;;18.43;40.57;99926.06;5038892;28;47115;-37
2023/04/22 05:31:59;;;;;;;;;8.00;8.00;;;;;18.43;40.84;99907.72;5039448;28;45161;-37
2023/04/22 05:34:24;;;;;;;;;10.00;9.75;;;;;18.41;40.79;99915.69;5061353;28;50636;-40
2023/04/22 05:36:50;;;;;;;;;12.50;9.00;;;;;18.41;40.87;99939.28;5040450;28;45283;-37
2023/04/22 05:39:15;;;;;;;;;9.00;9.00;;;;;18.40;40.75;99955.97;5039739;28;47148;-39
2023/04/22 05:41:40;;;;;;;;;7.00;7.00;;;;;18.41;40.92;99968.16;5040085;28;54412;-38
2023/04/22 05:44:06;;;;;;;;;10.00;9.00;;;;;18.39;40.86;99986.63;5039032;28;47041;-38
2023/04/22 05:46:32;;;;;;;;;10.00;6.25;;;;;18.40;40.81;99995.31;5038516;28;45401;-40
2023/04/22 05:48:57;;;;;;;;;8.75;8.00;;;;;18.41;40.33;99978.66;5037764;28;47254;-40
2023/04/22 05:51:23;;;;;;;;;8.00;8.00;;;;;18.42;40.88;99980.34;5038910;28;45429;-40
2023/04/22 05:53:49;;;;;;;;;6.75;6.00;;;;;18.42;40.89;99956.72;5038816;28;45317;-39
2023/04/22 05:56:14;;;;;;;;;7.50;6.00;;;;;18.43;40.72;99937.44;5037450;28;45439;-37
2023/04/22 05:58:40;;;;;;;;;8.75;8.25;;;;;18.44;40.91;99935.63;5039145;28;45687;-39
2023/04/22 06:01:05;;;;;;;;;9.00;6.00;;;;;18.43;40.72;99936.56;5042815;28;46153;-40
2023/04/22 06:03:30;;;;;;;;;7.75;7.75;;;;;18.42;40.71;99951.47;5046458;28;49022;-41
2023/04/22 06:05:56;;;;;;;;;6.00;5.00;;;;;18.44;40.59;99951.38;5044888;28;45146;-40
2023/04/22 06:08:21;;;;;;;;;9.00;6.25;;;;;18.43;40.96;99963.66;5043349;28;46211;-40
2023/04/22 06:10:47;;;;;;;;;11.25;8.75;;;;;18.44;41.01;99967.97;5039553;28;45379;-40
2023/04/22 06:13:12;;;;;;;;;7.00;7.00;;;;;18.44;40.72;99967.13;5038911;28;59502;-41
2023/04/22 06:15:37;;;;;;;;;9.00;9.00;;;;;18.43;41.35;99958.41;5039181;28;45545;-39
2023/04/22 06:18:03;;;;;;;;;9.25;8.00;;;;;18.43;40.94;99958.41;5041824;28;46335;-39
2023/04/22 06:20:31;;;;;;;;;10.00;8.75;;;;;18.41;41.31;99952.41;5038889;28;45223;-40
2023/04/22 06:22:56;;;;;;;;;9.25;7.00;;;;;18.43;41.19;99950.53;5045964;28;45256;-39
2023/04/22 06:25:22;;;;;;;;;8.50;8.00;;;;;18.44;41.32;99960.09;5057096;28;45427;-37
2023/04/22 06:27:47;;;;;;;;;8.67;6.33;;;;;18.44;41.39;99967.13;5039902;28;54079;-37
2023/04/22 06:30:12;;;;;;;;;8.50;7.00;;;;;18.43;41.48;99966.28;5038824;28;51321;-40
2023/04/22 06:32:38;;;;;;;;;8.50;7.75;;;;;18.44;41.52;99965.34;5038201;28;45785;-41
2023/04/22 06:35:03;;;;;;;;;9.25;7.00;;;;;18.44;41.82;99975.00;5039755;28;45892;-37
2023/04/22 06:37:29;;;;;;;;;8.50;7.75;;;;;18.44;41.13;99970.59;5038645;28;47369;-40
2023/04/22 06:39:54;;;;;;;;;8.00;8.00;;;;;18.45;41.47;99969.66;5038536;28;45317;-37
2023/04/22 06:42:19;;;;;;;;;7.25;7.00;;;;;18.48;41.09;99966.84;5038700;28;45181;-38
2023/04/22 06:44:45;;;;;;;;;16.33;14.33;;;;;18.51;40.81;99976.31;5037892;28;59838;-37
2023/04/22 06:47:10;;;;;;;;;42.33;36.33;;;;;18.54;40.91;99973.50;5038198;28;52107;-37
2023/04/22 06:49:38;;;;;;;;;58.25;46.00;;;;;18.55;40.92;99967.31;5038152;28;45246;-37
2023/04/22 06:52:03;;;;;;;;;66.00;51.00;;;;;18.58;41.32;99971.53;5038698;28;45223;-37
2023/04/22 06:54:28;;;;;;;;;60.50;46.25;;;;;18.59;41.01;99966.19;5038455;28;45486;-37
2023/04/22 06:56:54;;;;;;;;;62.67;48.33;;;;;18.59;41.28;99957.47;5037104;28;47282;-36
2023/04/22 06:59:19;;;;;;;;;58.00;45.75;;;;;18.60;41.26;99961.78;5036336;28;45517;-36
2023/04/22 07:01:44;;;;;;;;;49.33;39.67;;;;;18.61;41.14;99958.22;5036090;28;45802;-36
2023/04/22 07:04:10;;;;;;;;;45.50;36.00;;;;;18.62;41.22;99950.28;5036486;28;45670;-36
2023/04/22 07:06:35;;;;;;;;;50.25;38.75;;;;;18.60;40.97;99946.03;5037254;28;45404;-36
2023/04/22 07:09:01;;;;;;;;;52.25;39.25;;;;;18.64;40.93;99950.16;5038586;28;45366;-36
2023/04/22 07:11:26;;;;;;;;;44.25;36.00;;;;;18.62;41.17;99941.53;5037307;28;45342;-36
2023/04/22 07:13:51;;;;;;;;;35.33;31.00;;;;;18.63;41.18;99946.69;5037199;28;45555;-36
2023/04/22 07:16:18;;;;;;;;;37.00;31.67;;;;;18.65;40.87;99944.81;5049730;28;65701;-36
2023/04/22 07:18:43;;;;;;;;;42.00;31.25;;;;;18.66;41.31;99954.38;5045092;28;46007;-36
2023/04/22 07:21:08;;;;;;;;;37.33;31.33;;;;;18.66;41.01;99943.88;5037327;28;45252;-36
2023/04/22 07:23:33;;;;;;;;;39.33;31.67;;;;;18.67;41.06;99952.63;5036857;28;56040;-35
2023/04/22 07:25:59;;;;;;;;;32.25;27.75;;;;;18.67;41.12;99948.19;5036663;28;46484;-37
2023/04/22 07:28:24;;;;;;;;;28.75;26.75;;;;;18.68;41.41;99944.63;5035715;28;45634;-36
2023/04/22 07:30:50;;;;;;;;;30.00;26.50;;;;;18.67;41.26;99952.63;5037510;28;45234;-36
2023/04/22 07:33:15;;;;;;;;;34.33;28.67;;;;;18.67;40.88;99957.88;5037208;28;45186;-36
2023/04/22 07:35:40;;;;;;;;;27.25;27.00;;;;;18.65;40.98;99939.56;5036707;28;46306;-35
2023/04/22 07:38:06;;;;;;;;;28.25;26.00;;;;;18.68;41.28;99952.50;5037086;28;45296;-37
2023/04/22 07:40:31;;;;;;;;;26.75;24.25;;;;;18.69;41.20;99958.59;5037097;28;45461;-36
2023/04/22 07:42:57;;;;;;;;;36.00;25.33;;;;;18.69;41.48;99953.34;5036914;28;48319;-36
2023/04/22 07:45:22;;;;;;;;;28.00;24.75;;;;;18.69;41.09;99953.34;5035652;28;47144;-34
2023/04/22 07:47:47;;;;;;;;;25.75;23.00;;;;;18.69;41.11;99951.56;5037466;28;45298;-36
2023/04/22 07:50:13;;;;;;;;;25.00;25.00;;;;;18.70;41.22;99945.38;5042338;28;45626;-35
2023/04/22 07:52:38;;;;;;;;;27.00;23.00;;;;;18.69;41.43;99941.06;5043003;28;45307;-38
2023/04/22 07:55:04;;;;;;;;;26.67;21.67;;;;;18.70;41.09;99941.91;5037261;28;55221;-36
2023/04/22 07:57:29;;;;;;;;;25.50;23.25;;;;;18.71;41.60;99943.59;5041855;28;45374;-36
2023/04/22 07:59:54;;;;;;;;;24.00;21.00;;;;;18.72;41.47;99952.34;5043401;28;45315;-36
2023/04/22 08:02:20;;;;;;;;;24.50;20.50;;;;;18.70;41.32;99940.13;5043922;28;45374;-37
2023/04/22 08:04:46;;;;;;;;;23.50;21.50;;;;;18.71;41.17;99956.72;5038694;28;47140;-37
2023/04/22 08:07:11;;;;;;;;;20.50;18.00;;;;;18.73;41.34;99956.66;5036299;28;45335;-36
2023/04/22 08:09:36;;;;;;;;;17.25;16.50;;;;;18.70;41.46;99948.00;5036390;28;45398;-36
2023/04/22 08:12:02;;;;;;;;;21.67;17.33;;;;;18.72;41.26;99947.09;5035810;28;61454;-36
2023/04/22 08:14:27;;;;;;;;;18.25;16.00;;;;;18.72;41.33;99945.28;5035914;28;46267;-37
2023/04/22 08:16:52;;;;;;;;;18.00;16.75;;;;;18.73;41.21;99948.78;5036250;28;45444;-37
2023/04/22 08:19:19;;;;;;;;;20.25;18.75;;;;;18.73;41.48;99951.41;5036248;28;45331;-36
2023/04/22 08:21:45;;;;;;;;;19.75;14.50;;;;;18.72;41.30;99955.78;5036406;28;45208;-37
2023/04/22 08:24:10;;;;;;;;;17.25;14.75;;;;;18.72;41.38;99960.19;5035962;28;46971;-36
2023/04/22 08:26:37;;;;;;;;;17.75;17.50;;;;;18.72;41.25;99966.28;5036424;28;45387;-36
2023/04/22 08:29:03;;;;;;;;;17.75;17.25;;;;;18.72;41.76;99968.91;5036119;28;45236;-36
2023/04/22 08:31:28;;;;;;;;;15.75;14.75;;;;;18.73;41.24;99959.28;5036364;28;45241;-36
2023/04/22 08:33:54;;;;;;;;;17.50;14.25;;;;;18.75;41.43;99965.25;5043471;28;46856;-35
2023/04/22 17:30:26;;;;;;;;;56.50;43.50;;;;;21.29;43.18;100244.50;5905910;22;46447;-48
2023/04/22 17:32:51;;;;;;;;;80.75;64.25;;;;;21.28;43.18;100245.44;5038571;28;45539;-48
2023/04/22 17:35:17;;;;;;;;;69.50;52.50;;;;;21.29;43.29;100251.56;5042059;28;45333;-50
2023/04/22 17:37:42;;;;;;;;;67.75;50.00;;;;;21.28;42.96;100248.09;5042355;28;45344;-50
2023/04/22 17:40:08;;;;;;;;;69.25;52.00;;;;;21.27;43.51;100246.41;5041987;28;45251;-51
2023/04/22 17:42:36;;;;;;;;;81.25;71.75;;;;;21.26;43.50;100252.59;5045472;28;45532;-49
2023/04/22 17:45:02;;;;;;;;;105.00;92.50;;;;;21.24;44.73;100251.88;5045435;28;45678;-44
2023/04/22 17:47:28;;;;;;;;;100.50;84.75;;;;;21.25;44.59;100258.81;5046570;28;45333;-48
2023/04/22 17:49:54;;;;;;;;;94.75;81.50;;;;;21.24;45.11;100251.88;5041999;28;45342;-47
2023/04/22 17:52:19;;;;;;;;;88.00;73.25;;;;;21.24;45.13;100257.13;5040665;28;45228;-44
2023/04/22 17:54:44;;;;;;;;;90.25;75.75;;;;;21.21;44.88;100251.22;5039719;28;46470;-47
2023/04/22 17:57:11;;;;;;;;;102.00;78.33;;;;;21.21;45.13;100262.63;5039245;28;61902;-47
2023/04/22 17:59:36;;;;;;;;;95.00;76.75;;;;;21.19;45.14;100259.25;5039277;28;45243;-47
2023/04/22 18:02:02;;;;;;;;;95.50;77.25;;;;;21.19;45.27;100263.66;5040452;28;45196;-47
2023/04/22 18:04:28;;;;;;;;;92.50;76.75;;;;;21.17;45.48;100261.97;5040175;28;46273;-47
2023/04/22 18:06:53;;;;;;;;;112.25;89.00;;;;;21.15;45.74;100256.00;5038288;28;45391;-47
2023/04/22 18:09:18;;;;;;;;;89.50;73.25;;;;;21.13;45.51;100249.09;5039577;28;45333;-49
2023/04/22 18:11:44;;;;;;;;;78.25;59.25;;;;;21.12;45.38;100253.53;5039476;28;45426;-47
2023/04/22 18:14:10;;;;;;;;;89.75;72.00;;;;;21.11;45.27;100251.03;5039173;28;46413;-47
2023/04/22 18:16:35;;;;;;;;;93.75;73.50;;;;;21.09;45.62;100256.38;5039221;28;45508;-48
2023/04/22 18:19:02;;;;;;;;;94.75;78.25;;;;;21.09;45.41;100263.47;5040478;28;45756;-47
2023/04/22 18:21:28;;;;;;;;;92.75;70.00;;;;;21.07;44.73;100247.72;5039687;28;45505;-47
2023/04/22 18:23:54;;;;;;;;;90.25;74.00;;;;;21.09;45.54;100261.66;5039095;28;46088;-46
2023/04/22 18:26:19;;;;;;;;;80.25;64.25;;;;;21.10;45.21;100262.50;5037592;28;45665;-44
2023/04/22 18:28:45;;;;;;;;;75.25;56.75;;;;;21.11;44.83;100257.13;5036521;28;45280;-47
2023/04/22 18:31:10;;;;;;;;;79.25;61.50;;;;;21.15;45.40;100263.03;5038673;28;45498;-49
2023/04/22 18:33:36;;;;;;;;;76.50;56.75;;;;;21.15;44.90;100263.03;5037000;28;47273;-46
2023/04/22 18:36:01;;;;;;;;;74.75;54.00;;;;;21.19;44.94;100263.66;5038659;28;45252;-48
2023/04/22 18:38:27;;;;;;;;;80.50;64.00;;;;;21.19;44.96;100269.78;5037753;28;45423;-48
2023/04/22 18:40:53;;;;;;;;;79.00;61.00;;;;;21.20;45.23;100271.50;5039223;28;45617;-47
2023/04/22 18:43:21;;;;;;;;;79.00;60.75;;;;;21.22;44.99;100271.38;5038766;28;45601;-47
2023/04/22 18:45:47;;;;;;;;;74.75;55.50;;;;;21.22;45.28;100271.38;5038801;28;45468;-48
2023/04/22 18:48:12;;;;;;;;;78.75;60.75;;;;;21.20;44.76;100268.00;5037407;28;45825;-49
2023/04/22 18:50:37;;;;;;;;;78.67;60.33;;;;;21.17;45.38;100272.50;5038047;28;45410;-47
2023/04/22 18:53:03;;;;;;;;;76.50;57.50;;;;;21.14;45.36;100278.00;5038050;28;46299;-45
2023/04/22 18:55:28;;;;;;;;;78.50;58.25;;;;;21.12;45.63;100277.25;5038054;28;45411;-46
2023/04/22 18:57:54;;;;;;;;;78.00;55.50;;;;;21.09;46.02;100279.25;5036882;28;45430;-46
2023/04/22 19:00:21;;;;;;;;;76.67;55.33;;;;;21.10;46.71;100281.78;5037197;28;45466;-47
2023/04/22 19:02:47;;;;;;;;;66.25;49.50;;;;;21.10;47.27;100278.31;5032926;28;46334;-46
2023/04/22 19:05:13;;;;;;;;;73.00;56.00;;;;;21.09;47.23;100279.25;5032681;28;45212;-48
2023/04/22 19:07:39;;;;;;;;;69.00;50.75;;;;;21.08;47.75;100282.84;5034905;28;45549;-47
2023/04/22 19:10:06;;;;;;;;;67.25;52.50;;;;;21.06;47.52;100284.72;5050770;28;45345;-48
2023/04/22 19:12:31;;;;;;;;;64.75;49.00;;;;;21.04;47.34;100286.63;5038414;28;46577;-48
2023/04/22 19:14:59;;;;;;;;;68.75;51.75;;;;;21.04;47.22;100283.97;5028063;28;45648;-44
2023/04/22 19:17:24;;;;;;;;;69.25;52.00;;;;;21.03;47.01;100280.53;5028247;28;45185;-44
2023/04/22 19:19:50;;;;;;;;;72.25;49.75;;;;;21.01;47.50;100287.66;5017279;28;45745;-47
2023/04/22 19:22:15;;;;;;;;;66.25;50.25;;;;;21.00;47.67;100286.81;5026900;28;45281;-47
2023/04/22 19:24:41;;;;;;;;;69.00;51.00;;;;;20.99;47.88;100297.47;5036991;28;45234;-43
2023/04/22 19:27:11;;;;;;;;;67.25;47.00;;;;;20.98;48.04;100299.25;5037225;28;45233;-42
2023/04/22 19:29:37;;;;;;;;;69.75;49.00;;;;;20.97;47.12;100302.84;5037123;28;45569;-45
2023/04/22 19:32:02;;;;;;;;;65.50;49.50;;;;;20.94;47.73;100303.03;5036744;28;46462;-43
2023/04/22 19:34:28;;;;;;;;;68.25;49.00;;;;;20.94;47.86;100303.03;5036562;28;45869;-44
2023/04/22 19:36:53;;;;;;;;;62.33;48.67;;;;;20.92;47.97;100297.00;5035687;28;45629;-44
2023/04/22 19:39:19;;;;;;;;;65.50;48.00;;;;;20.92;47.49;100297.00;5037013;28;45467;-44
2023/04/22 19:41:44;;;;;;;;;58.00;45.50;;;;;20.91;47.72;100297.97;5036705;28;46535;-41
2023/04/22 19:44:09;;;;;;;;;59.25;46.75;;;;;20.90;47.82;100306.81;5044064;28;45292;-45
2023/04/22 19:46:37;;;;;;;;;60.50;45.00;;;;;20.88;47.56;100306.09;5040518;28;45335;-46
2023/04/22 19:49:02;;;;;;;;;54.50;44.25;;;;;20.88;48.14;100302.59;5036686;28;45566;-46
2023/04/22 19:51:28;;;;;;;;;65.25;45.00;;;;;20.85;47.96;100306.28;5035475;28;47283;-48
2023/04/22 19:53:56;;;;;;;;;61.50;41.25;;;;;20.84;47.54;100313.31;5036681;28;45334;-44
2023/04/22 19:56:21;;;;;;;;;52.25;41.00;;;;;20.84;47.59;100312.47;5036947;28;45331;-45
2023/04/22 19:58:47;;;;;;;;;53.00;39.50;;;;;20.83;47.87;100316.06;5041097;28;45486;-46
2023/04/22 20:01:12;;;;;;;;;54.00;42.25;;;;;20.82;47.87;100309.97;5043437;28;45298;-45
2023/04/22 20:03:38;;;;;;;;;56.25;42.00;;;;;20.82;48.04;100309.97;5043002;28;45264;-44
2023/04/22 20:06:04;;;;;;;;;51.75;41.00;;;;;20.81;47.77;100302.13;5043921;28;45307;-45
2023/04/22 20:08:29;;;;;;;;;51.25;38.50;;;;;20.81;48.04;100310.03;5042348;28;45712;-46